createdAt,value
2023-02-08T00:03:11.865Z,9.90
2023-02-08T00:05:39.356Z,10.02
2023-02-08T00:08:06.287Z,9.80
2023-02-08T00:10:32.754Z,9.87
2023-02-08T00:12:59.338Z,10.35
2023-02-08T00:15:25.828Z,9.57
2023-02-08T00:17:52.300Z,9.50
2023-02-08T00:20:18.909Z,9.63
2023-02-08T00:22:45.402Z,9.77
2023-02-08T00:25:12.205Z,9.15
2023-02-08T00:27:38.807Z,9.30
2023-02-08T00:30:05.978Z,9.05
2023-02-08T00:32:32.555Z,9.80
2023-02-08T00:34:59.035Z,9.13
2023-02-08T00:37:25.544Z,9.82
2023-02-08T00:39:52.025Z,9.45
2023-02-08T00:42:18.541Z,9.70
2023-02-08T00:44:45.421Z,9.02
2023-02-08T00:49:56.216Z,9.63
2023-02-08T00:55:07.280Z,9.10
2023-02-08T00:57:34.511Z,9.45
2023-02-08T01:00:01.545Z,8.83
2023-02-08T01:02:28.246Z,9.65
2023-02-08T01:04:54.797Z,8.63
2023-02-08T01:07:21.262Z,8.95
2023-02-08T01:09:47.835Z,9.15
2023-02-08T01:12:14.381Z,9.40
2023-02-08T01:14:41.055Z,9.35
2023-02-08T01:17:07.908Z,9.52
2023-02-08T01:19:34.619Z,9.38
2023-02-08T01:22:03.126Z,8.20
2023-02-08T01:24:29.687Z,8.97
2023-02-08T01:26:56.937Z,8.93
2023-02-08T01:29:23.903Z,9.93
2023-02-08T01:31:50.396Z,9.95
2023-02-08T01:34:16.936Z,10.25
2023-02-08T01:36:43.546Z,9.40
2023-02-08T01:39:11.674Z,9.20
2023-02-08T01:41:43.916Z,9.55
2023-02-08T01:44:13.560Z,9.52
2023-02-08T01:46:48.740Z,9.77
2023-02-08T01:49:20.780Z,9.87
2023-02-08T01:51:52.143Z,9.25
2023-02-08T01:54:22.441Z,9.00
2023-02-08T01:56:52.137Z,8.52
2023-02-08T02:02:15.185Z,10.60
2023-02-08T02:04:41.791Z,9.10
2023-02-08T02:07:08.653Z,9.93
2023-02-08T02:09:46.844Z,9.55
2023-02-08T02:12:14.506Z,9.85
2023-02-08T02:14:42.377Z,9.00
2023-02-08T02:17:12.453Z,9.18
2023-02-08T02:20:18.829Z,9.57
2023-02-08T02:23:10.556Z,9.43
2023-02-08T02:25:45.991Z,9.32
2023-02-08T02:28:50.158Z,9.30
2023-02-08T02:31:36.787Z,9.73
2023-02-08T02:34:37.129Z,9.65
2023-02-08T02:37:20.716Z,9.85
2023-02-08T02:40:15.114Z,9.43
2023-02-08T02:43:25.432Z,9.67
2023-02-08T02:45:56.473Z,9.55
2023-02-08T02:48:27.698Z,8.88
2023-02-08T02:51:04.243Z,9.38
2023-02-08T02:53:55.621Z,9.07
2023-02-08T02:56:26.752Z,8.57
2023-02-08T02:58:56.087Z,10.25
2023-02-08T03:01:26.009Z,9.52
2023-02-08T03:06:43.795Z,8.65
2023-02-08T03:12:34.748Z,9.52
2023-02-08T03:15:26.212Z,9.10
2023-02-08T03:18:04.802Z,8.70
2023-02-08T03:20:47.312Z,9.65
2023-02-08T03:23:22.304Z,9.60
2023-02-08T03:25:51.693Z,9.05
2023-02-08T03:28:31.554Z,10.27
2023-02-08T03:33:51.224Z,9.35
2023-02-08T03:36:23.302Z,9.57
2023-02-08T03:38:51.115Z,9.00
2023-02-08T03:41:24.440Z,9.52
2023-02-08T03:43:58.450Z,9.60
2023-02-08T03:46:29.023Z,9.52
2023-02-08T03:49:02.848Z,8.57
2023-02-08T03:51:32.746Z,9.75
2023-02-08T03:54:02.495Z,9.45
2023-02-08T03:56:40.822Z,8.98
2023-02-08T03:59:12.053Z,10.63
2023-02-08T04:01:45.220Z,9.73
2023-02-08T04:04:14.018Z,10.23
2023-02-08T04:06:40.554Z,9.65
2023-02-08T04:09:07.045Z,9.90
2023-02-08T04:11:33.504Z,10.02
2023-02-08T04:13:59.936Z,9.90
2023-02-08T04:16:26.434Z,10.65
2023-02-08T04:18:52.945Z,10.18
2023-02-08T04:21:19.411Z,10.00
2023-02-08T04:23:45.881Z,9.57
2023-02-08T04:26:12.327Z,9.37
2023-02-08T04:28:38.833Z,9.32
2023-02-08T04:31:05.557Z,9.18
2023-02-08T04:33:32.214Z,8.88
2023-02-08T04:35:58.737Z,9.77
2023-02-08T04:38:25.266Z,9.50
2023-02-08T04:40:52.000Z,9.80
2023-02-08T04:43:18.467Z,10.52
2023-02-08T04:45:44.943Z,10.68
2023-02-08T04:48:12.075Z,10.55
2023-02-08T04:50:39.566Z,9.97
2023-02-08T04:53:06.731Z,10.40
2023-02-08T04:55:33.456Z,9.73
2023-02-08T04:58:00.012Z,10.25
2023-02-08T05:00:27.324Z,11.27
2023-02-08T05:02:55.231Z,10.17
2023-02-08T05:05:21.757Z,10.57
2023-02-08T05:07:48.281Z,10.02
2023-02-08T05:10:15.071Z,10.05
2023-02-08T05:12:41.651Z,9.93
2023-02-08T05:15:08.676Z,10.20
2023-02-08T05:17:35.202Z,10.07
2023-02-08T05:20:01.688Z,10.73
2023-02-08T05:22:28.249Z,9.77
2023-02-08T05:24:55.106Z,10.00
2023-02-08T05:27:21.518Z,9.37
2023-02-08T05:29:48.024Z,9.82
2023-02-08T05:32:14.575Z,10.18
2023-02-08T05:34:41.493Z,9.90
2023-02-08T05:37:08.042Z,9.70
2023-02-08T05:39:34.656Z,10.20
2023-02-08T05:42:01.144Z,10.27
2023-02-08T05:44:27.637Z,10.05
2023-02-08T05:46:54.158Z,9.63
2023-02-08T05:49:20.719Z,10.88
2023-02-08T05:51:47.277Z,9.77
2023-02-08T05:54:13.756Z,10.23
2023-02-08T05:56:40.345Z,10.82
2023-02-08T05:59:06.803Z,9.65
2023-02-08T06:01:33.409Z,10.38
2023-02-08T06:04:00.546Z,9.80
2023-02-08T06:06:27.650Z,10.32
2023-02-08T06:08:54.258Z,10.20
2023-02-08T06:11:21.258Z,10.50
2023-02-08T06:13:48.075Z,10.85
2023-02-08T06:16:15.272Z,10.60
2023-02-08T06:18:41.813Z,10.68
2023-02-08T06:21:08.406Z,10.38
2023-02-08T06:23:34.917Z,10.85
2023-02-08T06:26:02.003Z,9.93
2023-02-08T06:28:28.499Z,10.77
2023-02-08T06:30:55.073Z,10.85
2023-02-08T06:33:21.669Z,10.68
2023-02-08T06:35:51.386Z,10.48
2023-02-08T06:38:18.963Z,10.07
2023-02-08T06:40:48.662Z,11.13
2023-02-08T06:43:16.276Z,11.02
2023-02-08T06:45:45.959Z,11.30
2023-02-08T06:48:13.041Z,11.68
2023-02-08T06:50:39.992Z,11.00
2023-02-08T06:53:06.697Z,10.33
2023-02-08T06:55:33.202Z,11.10
2023-02-08T06:57:59.666Z,11.10
2023-02-08T07:00:26.190Z,11.10
2023-02-08T07:02:52.826Z,10.77
2023-02-08T07:05:19.559Z,11.37
2023-02-08T07:07:48.470Z,11.82
2023-02-08T07:10:15.959Z,12.23
2023-02-08T07:12:42.496Z,11.40
2023-02-08T07:15:10.071Z,10.95
2023-02-08T07:17:36.597Z,10.93
2023-02-08T07:20:03.565Z,11.63
2023-02-08T07:22:30.075Z,12.18
2023-02-08T07:24:56.595Z,11.57
2023-02-08T07:27:25.026Z,11.95
2023-02-08T07:29:52.561Z,11.40
2023-02-08T07:32:19.057Z,12.05
2023-02-08T07:34:46.506Z,12.52
2023-02-08T07:37:13.079Z,12.38
2023-02-08T07:39:39.846Z,12.45
2023-02-08T07:42:08.805Z,13.00
2023-02-08T07:44:45.963Z,12.30
2023-02-08T07:47:12.469Z,12.52
2023-02-08T07:49:39.677Z,12.43
2023-02-08T07:52:06.305Z,12.35
2023-02-08T07:54:32.957Z,12.83
2023-02-08T07:57:02.369Z,12.07
2023-02-08T07:59:29.737Z,12.80
2023-02-08T08:01:56.374Z,12.10
2023-02-08T08:04:23.106Z,11.77
2023-02-08T08:06:51.462Z,11.63
2023-02-08T08:09:20.251Z,12.10
2023-02-08T08:11:46.789Z,12.32
2023-02-08T08:14:13.309Z,12.30
2023-02-08T08:16:40.459Z,12.18
2023-02-08T08:19:06.879Z,11.87
2023-02-08T08:21:33.395Z,12.65
2023-02-08T08:23:59.959Z,12.50
2023-02-08T08:26:26.730Z,12.20
2023-02-08T08:28:53.325Z,11.85
2023-02-08T08:31:22.505Z,12.30
2023-02-08T08:33:49.658Z,12.32
2023-02-08T08:36:16.603Z,11.77
2023-02-08T08:38:43.226Z,11.70
2023-02-08T08:41:15.037Z,11.35
2023-02-08T08:43:41.639Z,11.83
2023-02-08T08:46:09.077Z,12.73
2023-02-08T08:48:36.273Z,10.43
2023-02-08T08:51:03.245Z,11.45
2023-02-08T08:53:29.774Z,11.55
2023-02-08T08:55:56.268Z,10.60
2023-02-08T08:58:22.811Z,9.93
2023-02-08T09:00:49.457Z,9.60
2023-02-08T09:03:16.101Z,10.38
2023-02-08T09:05:42.599Z,9.55
2023-02-08T09:08:09.116Z,9.13
2023-02-08T09:10:35.701Z,9.07
2023-02-08T09:13:02.248Z,9.77
2023-02-08T09:15:28.807Z,8.90
2023-02-08T09:17:55.435Z,8.93
2023-02-08T09:20:21.965Z,9.20
2023-02-08T09:22:48.598Z,7.90
2023-02-08T09:25:15.509Z,8.13
2023-02-08T09:27:42.067Z,8.90
2023-02-08T09:30:09.239Z,7.55
2023-02-08T09:32:36.651Z,8.07
2023-02-08T09:35:03.618Z,8.55
2023-02-08T09:37:30.172Z,7.90
2023-02-08T09:39:58.607Z,7.75
2023-02-08T09:42:47.358Z,8.25
2023-02-08T09:45:31.018Z,7.30
2023-02-08T09:48:16.461Z,7.55
2023-02-08T09:50:59.858Z,6.97
2023-02-08T09:53:35.126Z,6.78
2023-02-08T09:56:05.265Z,7.03
2023-02-08T09:58:41.665Z,6.80
2023-02-08T10:01:23.849Z,6.32
2023-02-08T10:03:53.608Z,6.95
2023-02-08T10:06:20.415Z,5.95
2023-02-08T10:08:50.685Z,6.78
2023-02-08T10:11:28.551Z,6.23
2023-02-08T10:14:09.911Z,6.93
2023-02-08T10:16:43.708Z,6.05
2023-02-08T10:19:24.090Z,6.18
2023-02-08T10:21:50.575Z,5.15
2023-02-08T10:24:34.585Z,5.00
2023-02-08T10:27:23.719Z,5.15
2023-02-08T10:30:22.415Z,4.55
2023-02-08T10:33:06.859Z,4.90
2023-02-08T10:35:37.696Z,4.05
2023-02-08T10:38:19.320Z,4.37
2023-02-08T10:40:49.039Z,4.57
2023-02-08T10:43:28.802Z,5.28
2023-02-08T10:46:12.038Z,4.75
2023-02-08T10:48:48.498Z,4.35
2023-02-08T10:51:18.607Z,4.27
2023-02-08T10:53:46.253Z,4.28
2023-02-08T10:59:32.887Z,4.57
2023-02-08T11:01:59.837Z,3.63
2023-02-08T11:04:26.384Z,4.87
2023-02-08T11:06:54.712Z,4.03
2023-02-08T11:09:31.475Z,4.03
2023-02-08T11:12:00.971Z,4.00
2023-02-08T11:14:46.086Z,4.22
2023-02-08T11:17:29.545Z,4.50
2023-02-08T11:22:45.709Z,4.30
2023-02-08T11:25:36.006Z,4.00
2023-02-08T11:28:03.508Z,4.32
2023-02-08T11:30:30.342Z,4.83
2023-02-08T11:33:18.642Z,4.20
2023-02-08T11:36:01.559Z,3.85
2023-02-08T11:38:29.205Z,4.35
2023-02-08T11:40:59.032Z,3.63
2023-02-08T11:43:31.991Z,4.10
2023-02-08T11:45:59.605Z,3.97
2023-02-08T11:48:39.416Z,4.32
2023-02-08T11:51:06.535Z,4.45
2023-02-08T11:53:37.689Z,3.95
2023-02-08T11:56:17.801Z,4.77
2023-02-08T11:58:57.797Z,4.63
2023-02-08T12:01:29.373Z,3.72
2023-02-08T12:03:59.004Z,4.32
2023-02-08T12:06:47.395Z,3.70
2023-02-08T12:09:29.066Z,3.97
2023-02-08T12:12:20.477Z,3.50
2023-02-08T12:15:10.467Z,3.60
2023-02-08T12:17:55.266Z,3.70
2023-02-08T12:20:42.762Z,3.92
2023-02-08T12:23:28.203Z,3.33
2023-02-08T12:26:13.302Z,3.05
2023-02-08T12:29:02.719Z,3.03
2023-02-08T12:31:44.169Z,2.40
2023-02-08T12:34:19.679Z,3.10
2023-02-08T12:37:26.106Z,2.70
2023-02-08T12:40:25.531Z,2.63
2023-02-08T12:43:04.329Z,2.97
2023-02-08T12:45:52.231Z,3.17
2023-02-08T12:48:30.849Z,2.78
2023-02-08T12:51:16.656Z,2.30
2023-02-08T12:53:55.258Z,2.50
2023-02-08T12:56:31.740Z,2.17
2023-02-08T12:59:11.860Z,2.38
2023-02-08T13:01:51.504Z,2.53
2023-02-08T13:04:27.314Z,2.70
2023-02-08T13:06:59.176Z,2.42
2023-02-08T13:10:12.233Z,2.10
2023-02-08T13:12:44.215Z,2.08
2023-02-08T13:15:30.079Z,2.20
2023-02-08T13:17:59.983Z,1.93
2023-02-08T13:20:38.369Z,2.17
2023-02-08T13:23:15.381Z,2.00
2023-02-08T13:25:44.269Z,2.30
2023-02-08T13:28:19.185Z,2.10
2023-02-08T13:30:52.260Z,2.20
2023-02-08T13:33:30.989Z,2.00
2023-02-08T13:35:57.975Z,2.20
2023-02-08T13:38:35.502Z,2.05
2023-02-08T13:41:17.650Z,2.03
2023-02-08T13:43:51.525Z,2.20
2023-02-08T13:46:19.672Z,1.92
2023-02-08T13:48:50.721Z,2.53
2023-02-08T13:51:32.615Z,2.60
2023-02-08T13:54:02.031Z,1.85
2023-02-08T13:56:49.773Z,2.37
2023-02-08T13:59:42.130Z,2.85
2023-02-08T14:02:11.368Z,2.38
2023-02-08T14:05:18.052Z,2.25
2023-02-08T14:10:37.756Z,2.20
2023-02-08T14:13:23.399Z,2.30
2023-02-08T14:16:23.562Z,2.60
2023-02-08T14:18:59.311Z,2.75
2023-02-08T14:21:38.857Z,2.47
2023-02-08T14:24:19.036Z,2.50
2023-02-08T14:26:46.181Z,2.65
2023-02-08T14:29:24.008Z,2.25
2023-02-08T14:31:51.349Z,2.75
2023-02-08T14:34:26.329Z,2.67
2023-02-08T14:37:01.625Z,2.73
2023-02-08T14:39:33.388Z,2.95
2023-02-08T14:42:38.636Z,2.70
2023-02-08T14:45:05.830Z,2.60
2023-02-08T14:47:33.492Z,2.80
2023-02-08T14:50:20.563Z,2.90
2023-02-08T14:53:13.218Z,4.13
2023-02-08T14:55:49.081Z,2.90
2023-02-08T14:58:25.353Z,2.88
2023-02-08T15:00:54.878Z,3.42
2023-02-08T15:03:22.127Z,3.20
2023-02-08T15:06:22.865Z,3.72
2023-02-08T15:08:52.257Z,3.10
2023-02-08T15:11:28.252Z,3.15
2023-02-08T15:14:00.851Z,3.40
2023-02-08T15:16:34.863Z,4.00
2023-02-08T15:19:03.796Z,2.90
2023-02-08T15:21:32.338Z,3.40
2023-02-08T15:24:00.453Z,3.17
2023-02-08T15:26:27.302Z,2.70
2023-02-08T15:28:54.181Z,3.23
2023-02-08T15:31:23.708Z,2.78
2023-02-08T15:33:53.191Z,3.00
2023-02-08T15:36:29.132Z,2.10
2023-02-08T15:38:58.048Z,2.28
2023-02-08T15:41:34.288Z,2.60
2023-02-08T15:44:23.574Z,2.88
2023-02-08T15:46:55.210Z,2.58
2023-02-08T15:49:31.210Z,2.38
2023-02-08T15:51:58.723Z,2.65
2023-02-08T15:54:25.585Z,1.90
2023-02-08T15:57:03.893Z,2.22
2023-02-08T15:59:32.915Z,1.83
2023-02-08T16:02:09.212Z,1.90
2023-02-08T16:04:44.407Z,2.13
2023-02-08T16:07:22.947Z,1.93
2023-02-08T16:09:49.799Z,2.20
2023-02-08T16:12:21.646Z,2.13
2023-02-08T16:14:52.676Z,1.65
2023-02-08T16:17:38.657Z,2.92
2023-02-08T16:20:40.820Z,2.70
2023-02-08T16:23:27.460Z,2.38
2023-02-08T16:25:54.293Z,2.10
2023-02-08T16:28:32.125Z,2.47
2023-02-08T16:31:01.257Z,2.20
2023-02-08T16:33:30.082Z,2.77
2023-02-08T16:36:03.058Z,4.82
2023-02-08T16:38:32.052Z,3.97
2023-02-08T16:41:12.128Z,4.20
2023-02-08T16:43:44.045Z,11.52
2023-02-08T16:46:10.886Z,17.97
2023-02-08T16:48:40.660Z,12.02
2023-02-08T16:51:13.097Z,9.10
2023-02-08T16:53:42.641Z,10.40
2023-02-08T16:56:10.917Z,6.82
2023-02-08T16:58:37.733Z,7.40
2023-02-08T17:01:04.566Z,6.90
2023-02-08T17:03:32.642Z,7.00
2023-02-08T17:06:00.977Z,5.25
2023-02-08T17:08:27.713Z,7.20
2023-02-08T17:10:58.754Z,12.03
2023-02-08T17:13:28.899Z,7.38
2023-02-08T17:15:57.333Z,6.47
2023-02-08T17:18:23.851Z,6.07
2023-02-08T17:23:41.759Z,7.90
2023-02-08T17:26:19.966Z,6.25
2023-02-08T17:28:46.738Z,6.25
2023-02-08T17:31:14.713Z,6.32
2023-02-08T17:33:41.526Z,7.35
2023-02-08T17:36:10.981Z,10.40
2023-02-08T17:38:41.359Z,8.05
2023-02-08T17:41:15.181Z,7.10
2023-02-08T17:43:41.785Z,7.35
2023-02-08T17:46:20.571Z,7.40
2023-02-08T17:48:48.438Z,7.80
2023-02-08T17:51:23.433Z,7.40
2023-02-08T17:53:50.854Z,6.65
2023-02-08T17:56:20.448Z,7.13
2023-02-08T17:58:51.305Z,5.95
2023-02-08T18:01:24.026Z,6.87
2023-02-08T18:03:51.683Z,5.97
2023-02-08T18:06:19.281Z,5.93
2023-02-08T18:08:46.403Z,5.82
2023-02-08T18:11:19.660Z,5.95
2023-02-08T18:13:50.976Z,5.63
2023-02-08T18:16:20.716Z,5.35
2023-02-08T18:18:47.282Z,4.57
2023-02-08T18:21:17.278Z,5.10
2023-02-08T18:23:44.636Z,4.72
2023-02-08T18:26:14.786Z,5.23
2023-02-08T18:28:42.064Z,4.95
2023-02-08T18:31:11.128Z,5.70
2023-02-08T18:33:38.081Z,5.80
2023-02-08T18:36:11.266Z,6.38
2023-02-08T18:38:39.337Z,6.67
2023-02-08T18:41:09.996Z,6.50
2023-02-08T18:43:37.836Z,6.80
2023-02-08T18:46:09.499Z,5.93
2023-02-08T18:48:37.305Z,5.00
2023-02-08T18:51:04.869Z,5.90
2023-02-08T18:53:34.292Z,5.60
2023-02-08T18:56:02.705Z,5.75
2023-02-08T18:58:29.253Z,4.53
2023-02-08T19:00:56.940Z,4.45
2023-02-08T19:03:23.432Z,5.20
2023-02-08T19:05:50.098Z,4.80
2023-02-08T19:08:16.565Z,5.13
2023-02-08T19:10:43.843Z,5.00
2023-02-08T19:13:10.432Z,5.07
2023-02-08T19:15:38.466Z,4.67
2023-02-08T19:18:07.006Z,4.65
2023-02-08T19:20:38.090Z,4.47
2023-02-08T19:23:05.726Z,5.20
2023-02-08T19:25:36.936Z,4.82
2023-02-08T19:28:03.752Z,4.93
2023-02-08T19:30:30.428Z,4.90
2023-02-08T19:32:57.149Z,5.18
2023-02-08T19:35:23.662Z,4.72
2023-02-08T19:37:51.681Z,4.38
2023-02-08T19:40:19.512Z,4.83
2023-02-08T19:42:46.104Z,4.97
2023-02-08T19:45:13.494Z,4.30
2023-02-08T19:47:51.020Z,4.43
2023-02-08T19:50:18.144Z,4.65
2023-02-08T19:52:44.572Z,4.80
2023-02-08T19:55:11.084Z,4.80
2023-02-08T19:57:39.942Z,5.25
2023-02-08T20:00:17.655Z,5.20
2023-02-08T20:02:49.321Z,4.80
2023-02-08T20:05:15.785Z,4.83
2023-02-08T20:07:42.311Z,5.13
2023-02-08T20:10:09.784Z,5.40
2023-02-08T20:12:36.325Z,4.70
2023-02-08T20:15:02.947Z,5.20
2023-02-08T20:17:29.421Z,5.20
2023-02-08T20:19:55.887Z,5.53
2023-02-08T20:22:22.420Z,5.22
2023-02-08T20:24:48.945Z,5.20
2023-02-08T20:27:15.492Z,5.45
2023-02-08T20:29:41.988Z,5.83
2023-02-08T20:32:09.611Z,5.75
2023-02-08T20:34:38.126Z,5.50
2023-02-08T20:37:07.984Z,5.75
2023-02-08T20:39:36.345Z,5.38
2023-02-08T20:42:03.492Z,5.03
2023-02-08T20:44:31.446Z,5.63
2023-02-08T20:46:58.058Z,5.80
2023-02-08T20:49:26.824Z,5.38
2023-02-08T20:51:54.270Z,5.30
2023-02-08T20:54:24.236Z,6.27
2023-02-08T20:56:51.699Z,5.88
2023-02-08T20:59:18.500Z,5.63
2023-02-08T21:01:46.487Z,5.68
2023-02-08T21:04:13.329Z,5.45
2023-02-08T21:06:44.026Z,5.60
2023-02-08T21:09:16.134Z,6.32
2023-02-08T21:11:43.288Z,5.35
2023-02-08T21:14:15.373Z,5.43
2023-02-08T21:16:41.937Z,5.30
2023-02-08T21:19:10.715Z,5.60
2023-02-08T21:21:37.231Z,6.10
2023-02-08T21:24:03.809Z,5.70
2023-02-08T21:26:30.419Z,5.57
2023-02-08T21:28:57.214Z,5.90
2023-02-08T21:31:24.775Z,5.93
2023-02-08T21:33:52.267Z,5.88
2023-02-08T21:36:21.791Z,6.30
2023-02-08T21:38:48.678Z,6.10
2023-02-08T21:41:33.116Z,6.18
2023-02-08T21:44:03.014Z,6.33
2023-02-08T21:46:30.929Z,6.05
2023-02-08T21:49:16.611Z,6.38
2023-02-08T21:52:02.437Z,6.47
2023-02-08T21:54:41.997Z,5.75
2023-02-08T21:57:20.361Z,6.23
2023-02-08T21:59:49.110Z,5.72
2023-02-08T22:02:25.616Z,4.95
2023-02-08T22:04:53.824Z,5.32
2023-02-08T22:07:21.128Z,5.15
2023-02-08T22:09:47.838Z,4.87
2023-02-08T22:12:15.708Z,5.50
2023-02-08T22:14:42.971Z,5.50
2023-02-08T22:17:10.205Z,5.10
2023-02-08T22:19:38.826Z,4.90
2023-02-08T22:22:05.594Z,4.93
2023-02-08T22:24:33.668Z,5.15
2023-02-08T22:27:01.067Z,5.82
2023-02-08T22:29:27.683Z,4.97
2023-02-08T22:31:54.308Z,5.53
2023-02-08T22:34:21.036Z,4.70
2023-02-08T22:36:47.530Z,5.22
2023-02-08T22:39:14.039Z,5.95
2023-02-08T22:41:40.510Z,6.07
2023-02-08T22:44:06.973Z,5.97
2023-02-08T22:46:33.429Z,5.87
2023-02-08T22:49:00.021Z,4.72
2023-02-08T22:51:26.530Z,5.30
2023-02-08T22:53:53.080Z,5.57
2023-02-08T22:56:19.587Z,5.20
2023-02-08T22:58:46.221Z,4.27
2023-02-08T23:01:14.952Z,5.13
2023-02-08T23:03:42.152Z,5.63
2023-02-08T23:06:10.743Z,5.55
2023-02-08T23:08:37.247Z,4.60
2023-02-08T23:11:05.989Z,5.07
2023-02-08T23:13:33.584Z,5.13
2023-02-08T23:16:00.222Z,5.10
2023-02-08T23:18:26.912Z,4.90
2023-02-08T23:20:54.548Z,5.13
2023-02-08T23:23:21.102Z,4.97
2023-02-08T23:25:47.737Z,5.32
2023-02-08T23:28:14.553Z,4.00
2023-02-08T23:30:42.500Z,4.70
2023-02-08T23:33:09.530Z,4.57
2023-02-08T23:35:39.853Z,5.00
2023-02-08T23:38:06.345Z,4.90
2023-02-08T23:40:32.919Z,4.57
2023-02-08T23:42:59.383Z,4.22
2023-02-08T23:45:25.878Z,4.60
2023-02-08T23:47:52.578Z,4.83
2023-02-08T23:50:19.182Z,4.20
2023-02-08T23:52:45.696Z,4.50
2023-02-08T23:55:12.213Z,4.97
2023-02-08T23:57:39.166Z,4.97
